Cavetown, MD (21720)

10:44 AM EDT on October 01, 2016 (GMT -0400)
APRSWXNET | | Change Station

Elev 564 ft 39.53 °N, 77.63 °W | Updated 31 minutes ago

Overcast
Overcast
59 °F
Feels Like 59 °F
N
2
Wind Variable Wind from NNW
Gusts 4.0 mph

Today
High -- | Low -- °F
--% Chance of Precip.
Yesterday
High -- | Low -- °F
Precip. -- in
Pressure 30.16 in
Visibility 2.5 miles
Clouds Overcast 700 ft
Dew Point 58 °F
Humidity 96%
Rainfall in
Snow Depth Not available.
7:07 AM 6:51 PM
New Moon, 0% visible
SPECI KHGR 011424Z 35008KT 2 1/2SM BR OVC007 14/13 A3016 RMK AO2 RAE09 CIG 004V013 P0000 T01440133
Pressure 30.16 in
Visibility 2.5 miles
Clouds Overcast 700 ft
Dew Point 58 °F
Humidity 96%
Rainfall in
Snow Depth Not available.
7:07 AM 6:51 PM
New Moon, 0% visible
SPECI KHGR 011424Z 35008KT 2 1/2SM BR OVC007 14/13 A3016 RMK AO2 RAE09 CIG 004V013 P0000 T01440133

10-Day Weather Forecast

Almanac

Astronomy

Oct. 01, 2016 Rise Set
Actual Time
Civil Twilight
Nautical Twilight
Astronomical Twilight
Moon
Length of Visible Light
Length of Day
Tomorrow will be .
, % of the Moon is Illuminated

Today's Extremes

State Highs State Lows

Community

WunderPhotos

Upload Photos

1,942,940 photos uploaded!

WunderBlog® & News

Nearby

Air Quality

  Air Quality AQ Index Pollutant
Not available.

Snow Depth

Station Depth Elevation

Earthquake Activity

City Distance Mag. Time & Date
Minimum magnitude displayed is 2.5.

Coastal Water Temperatures

Place Temperature

Stations

Nearby Weather Stations

Station Location Temp. Windchill Dew Point Humidity Wind Precip. Elev Updated Type
                   

Watches & Warnings

There are currently no watches in effect.